createdAt,value
2024-03-12T00:01:08.960Z,85.36
2024-03-12T00:03:36.511Z,85.22
2024-03-12T00:06:03.102Z,85.19
2024-03-12T00:08:29.682Z,85.36
2024-03-12T00:10:56.261Z,86.43
2024-03-12T00:13:24.390Z,86.19
2024-03-12T00:15:50.995Z,86.54
2024-03-12T00:18:17.440Z,86.59
2024-03-12T00:20:45.568Z,86.59
2024-03-12T00:23:12.933Z,86.94
2024-03-12T00:25:40.346Z,87.28
2024-03-12T00:28:09.632Z,87.36
2024-03-12T00:30:36.174Z,87.13
2024-03-12T00:33:02.689Z,87.62
2024-03-12T00:35:36.450Z,87.94
2024-03-12T00:38:04.870Z,88.18
2024-03-12T00:40:40.541Z,87.59
2024-03-12T00:43:08.222Z,87.99
2024-03-12T00:45:39.260Z,89.45
2024-03-12T00:48:10.915Z,89.58
2024-03-12T00:50:38.854Z,88.96
2024-03-12T00:53:05.769Z,88.79
2024-03-12T00:55:32.791Z,89.20
2024-03-12T00:57:59.775Z,89.37
2024-03-12T01:00:27.875Z,89.01
2024-03-12T01:02:55.528Z,87.96
2024-03-12T01:05:26.641Z,88.31
2024-03-12T01:08:01.103Z,87.85
2024-03-12T01:10:29.713Z,86.95
2024-03-12T01:12:57.858Z,87.04
2024-03-12T01:15:25.635Z,87.14
2024-03-12T01:17:56.948Z,87.34
2024-03-12T01:20:26.348Z,87.33
2024-03-12T01:22:55.157Z,87.89
2024-03-12T01:25:23.119Z,88.40
2024-03-12T01:27:51.021Z,89.25
2024-03-12T01:30:17.946Z,89.32
2024-03-12T01:32:48.732Z,89.14
2024-03-12T01:35:15.720Z,89.64
2024-03-12T01:37:44.247Z,90.06
2024-03-12T01:40:22.701Z,89.75
2024-03-12T01:43:07.789Z,89.68
2024-03-12T01:45:35.205Z,90.19
2024-03-12T01:48:12.250Z,90.08
2024-03-12T01:50:43.120Z,89.63
2024-03-12T01:53:10.808Z,89.55
2024-03-12T01:55:39.278Z,90.35
2024-03-12T01:58:06.295Z,90.18
2024-03-12T02:00:34.358Z,89.51
2024-03-12T02:03:01.270Z,89.34
2024-03-12T02:05:27.917Z,89.99
2024-03-12T02:07:54.937Z,89.29
2024-03-12T02:10:21.648Z,89.02
2024-03-12T02:12:48.979Z,88.83
2024-03-12T02:15:22.028Z,88.49
2024-03-12T02:17:49.394Z,88.04
2024-03-12T02:20:15.980Z,87.53
2024-03-12T02:22:42.395Z,87.68
2024-03-12T02:25:12.754Z,86.87
2024-03-12T02:27:41.186Z,87.15
2024-03-12T02:30:12.108Z,86.76
2024-03-12T02:32:42.211Z,87.04
2024-03-12T02:35:12.678Z,87.28
2024-03-12T02:37:40.357Z,86.98
2024-03-12T02:40:13.731Z,87.11
2024-03-12T02:42:42.493Z,86.82
2024-03-12T02:45:09.294Z,86.72
2024-03-12T02:47:36.106Z,86.40
2024-03-12T02:50:02.592Z,86.71
2024-03-12T02:52:30.665Z,86.82
2024-03-12T02:54:57.197Z,86.52
2024-03-12T02:57:23.833Z,87.10
2024-03-12T02:59:50.399Z,88.16
2024-03-12T03:02:16.979Z,87.95
2024-03-12T03:04:43.398Z,88.61
2024-03-12T03:07:12.222Z,88.63
2024-03-12T03:09:39.080Z,88.82
2024-03-12T03:12:06.065Z,89.49
2024-03-12T03:14:32.531Z,89.70
2024-03-12T03:16:58.958Z,90.29
2024-03-12T03:19:25.406Z,90.05
2024-03-12T03:21:51.805Z,89.88
2024-03-12T03:24:18.289Z,89.80
2024-03-12T03:26:45.082Z,90.38
2024-03-12T03:29:12.496Z,90.69
2024-03-12T03:31:39.109Z,90.83
2024-03-12T03:34:05.994Z,91.14
2024-03-12T03:36:33.346Z,91.41
2024-03-12T03:39:00.053Z,91.81
2024-03-12T03:41:26.536Z,91.19
2024-03-12T03:43:53.107Z,90.91
2024-03-12T03:46:19.903Z,90.83
2024-03-12T03:48:46.419Z,90.44
2024-03-12T03:51:13.190Z,90.05
2024-03-12T03:53:41.326Z,89.54
2024-03-12T03:56:16.437Z,89.39
2024-03-12T03:58:44.569Z,88.53
2024-03-12T04:01:11.794Z,87.94
2024-03-12T04:03:40.157Z,88.36
2024-03-12T04:06:08.367Z,88.30
2024-03-12T04:08:38.571Z,88.97
2024-03-12T04:11:05.068Z,88.75
2024-03-12T04:13:33.518Z,89.24
2024-03-12T04:16:00.527Z,89.21
2024-03-12T04:18:27.251Z,89.26
2024-03-12T04:20:55.655Z,88.38
2024-03-12T04:23:22.129Z,87.83
2024-03-12T04:25:48.771Z,86.84
2024-03-12T04:28:17.389Z,87.62
2024-03-12T04:30:45.095Z,87.97
2024-03-12T04:33:12.243Z,87.42
2024-03-12T04:35:39.069Z,86.02
2024-03-12T04:38:05.915Z,86.96
2024-03-12T04:40:32.427Z,87.65
2024-03-12T04:42:59.082Z,87.74
2024-03-12T04:45:26.165Z,87.54
2024-03-12T04:47:53.288Z,87.01
2024-03-12T04:50:22.831Z,86.84
2024-03-12T04:52:51.085Z,86.89
2024-03-12T04:55:17.601Z,86.82
2024-03-12T04:57:44.466Z,86.50
2024-03-12T05:00:15.828Z,87.08
2024-03-12T05:02:43.373Z,87.46
2024-03-12T05:05:09.934Z,86.82
2024-03-12T05:07:36.392Z,86.75
2024-03-12T05:10:02.870Z,86.79
2024-03-12T05:12:29.514Z,87.29
2024-03-12T05:14:56.263Z,89.24
2024-03-12T05:17:22.827Z,88.52
2024-03-12T05:19:49.999Z,88.18
2024-03-12T05:22:17.390Z,88.35
2024-03-12T05:24:43.981Z,88.33
2024-03-12T05:27:11.175Z,88.67
2024-03-12T05:29:44.476Z,89.93
2024-03-12T05:32:19.040Z,89.81
2024-03-12T05:34:47.042Z,89.55
2024-03-12T05:37:29.793Z,89.80
2024-03-12T05:40:17.931Z,90.37
2024-03-12T05:43:03.941Z,90.17
2024-03-12T05:45:49.145Z,90.48
2024-03-12T05:48:15.691Z,91.23
2024-03-12T05:50:43.073Z,90.61
2024-03-12T05:53:10.197Z,92.34
2024-03-12T05:55:37.223Z,93.35
2024-03-12T05:58:05.609Z,91.82
2024-03-12T06:00:32.275Z,89.97
2024-03-12T06:02:58.981Z,90.45
2024-03-12T06:05:25.853Z,90.90
2024-03-12T06:07:53.608Z,90.76
2024-03-12T06:10:20.196Z,90.20
2024-03-12T06:12:46.921Z,89.38
2024-03-12T06:15:13.434Z,88.69
2024-03-12T06:17:39.972Z,88.18
2024-03-12T06:20:10.146Z,87.76
2024-03-12T06:22:38.001Z,87.42
2024-03-12T06:25:04.691Z,87.72
2024-03-12T06:27:31.834Z,87.81
2024-03-12T06:29:58.266Z,87.23
2024-03-12T06:32:26.303Z,87.21
2024-03-12T06:34:53.032Z,87.29
2024-03-12T06:37:20.135Z,87.73
2024-03-12T06:39:47.696Z,87.05
2024-03-12T06:42:14.351Z,87.38
2024-03-12T06:44:43.709Z,87.02
2024-03-12T06:47:10.963Z,86.59
2024-03-12T06:49:37.928Z,86.35
2024-03-12T06:52:07.663Z,86.48
2024-03-12T06:54:36.257Z,86.04
2024-03-12T06:57:05.386Z,85.97
2024-03-12T06:59:33.853Z,86.12
2024-03-12T07:02:06.588Z,86.09
2024-03-12T07:04:36.297Z,86.12
2024-03-12T07:07:14.559Z,87.87
2024-03-12T07:09:42.555Z,88.75
2024-03-12T07:12:09.745Z,88.80
2024-03-12T07:14:44.610Z,89.45
2024-03-12T07:17:11.426Z,89.00
2024-03-12T07:19:41.414Z,89.37
2024-03-12T07:22:12.126Z,89.66
2024-03-12T07:24:40.671Z,89.65
2024-03-12T07:27:08.475Z,87.38
2024-03-12T07:29:35.211Z,88.18
2024-03-12T07:32:03.626Z,88.35
2024-03-12T07:34:33.290Z,88.26
2024-03-12T07:37:00.964Z,87.99
2024-03-12T07:39:32.570Z,88.44
2024-03-12T07:42:06.263Z,88.43
2024-03-12T07:44:33.733Z,88.15
2024-03-12T07:47:00.586Z,88.03
2024-03-12T07:49:27.670Z,87.17
2024-03-12T07:51:54.204Z,87.97
2024-03-12T07:54:21.089Z,87.66
2024-03-12T07:56:51.845Z,87.37
2024-03-12T07:59:23.208Z,86.63
2024-03-12T08:01:58.483Z,86.04
2024-03-12T08:04:28.338Z,86.70
2024-03-12T08:06:55.170Z,86.85
2024-03-12T08:09:22.302Z,85.81
2024-03-12T08:11:49.412Z,85.54
2024-03-12T08:14:17.120Z,85.46
2024-03-12T08:16:43.908Z,85.49
2024-03-12T08:19:14.248Z,85.10
2024-03-12T08:21:40.931Z,84.42
2024-03-12T08:24:08.908Z,84.15
2024-03-12T08:26:35.385Z,83.97
2024-03-12T08:29:02.168Z,83.87
2024-03-12T08:31:33.422Z,83.58
2024-03-12T08:34:10.513Z,83.49
2024-03-12T08:36:37.514Z,83.12
2024-03-12T08:39:05.846Z,81.86
2024-03-12T08:41:34.179Z,81.46
2024-03-12T08:44:00.838Z,80.46
2024-03-12T08:46:29.460Z,80.57
2024-03-12T08:48:59.646Z,80.25
2024-03-12T08:51:26.839Z,79.46
2024-03-12T08:53:53.243Z,76.90
2024-03-12T08:56:20.587Z,76.41
2024-03-12T08:58:48.391Z,75.95
2024-03-12T09:01:15.008Z,75.88
2024-03-12T09:03:46.440Z,75.18
2024-03-12T09:06:13.677Z,74.86
2024-03-12T09:08:40.573Z,74.44
2024-03-12T09:11:07.254Z,74.63
2024-03-12T09:13:33.935Z,74.92
2024-03-12T09:16:00.759Z,74.60
2024-03-12T09:18:28.212Z,74.80
2024-03-12T09:20:56.308Z,74.72
2024-03-12T09:23:23.410Z,75.11
2024-03-12T09:25:49.945Z,74.67
2024-03-12T09:28:19.322Z,73.77
2024-03-12T09:30:46.749Z,74.23
2024-03-12T09:33:14.416Z,73.82
2024-03-12T09:35:41.165Z,74.19
2024-03-12T09:38:10.620Z,74.33
2024-03-12T09:40:37.948Z,74.26
2024-03-12T09:43:05.114Z,74.58
2024-03-12T09:45:32.679Z,74.42
2024-03-12T09:47:59.857Z,74.63
2024-03-12T09:50:26.705Z,74.64
2024-03-12T09:52:53.939Z,74.62
2024-03-12T09:55:22.693Z,75.02
2024-03-12T09:57:49.383Z,74.80
2024-03-12T10:00:28.789Z,74.13
2024-03-12T10:02:56.389Z,74.40
2024-03-12T10:05:23.952Z,73.26
2024-03-12T10:08:10.377Z,73.09
2024-03-12T10:10:38.979Z,73.73
2024-03-12T10:13:06.035Z,72.68
2024-03-12T10:15:32.846Z,72.85
2024-03-12T10:18:01.135Z,72.79
2024-03-12T10:20:28.183Z,73.19
2024-03-12T10:23:16.492Z,73.09
2024-03-12T10:25:45.965Z,73.04
2024-03-12T10:28:23.527Z,73.12
2024-03-12T10:30:50.553Z,73.37
2024-03-12T10:33:20.045Z,72.42
2024-03-12T10:35:46.885Z,72.43
2024-03-12T10:38:14.831Z,72.45
2024-03-12T10:40:42.651Z,72.95
2024-03-12T10:43:09.701Z,72.93
2024-03-12T10:45:37.259Z,72.68
2024-03-12T10:48:07.213Z,72.55
2024-03-12T10:50:35.489Z,72.68
2024-03-12T10:53:02.300Z,72.68
2024-03-12T10:55:34.060Z,72.69
2024-03-12T10:58:03.689Z,72.45
2024-03-12T11:00:31.495Z,71.94
2024-03-12T11:02:58.101Z,72.12
2024-03-12T11:05:28.949Z,71.73
2024-03-12T11:07:57.186Z,72.27
2024-03-12T11:10:24.055Z,72.14
2024-03-12T11:12:50.750Z,72.14
2024-03-12T11:15:18.969Z,71.76
2024-03-12T11:17:50.603Z,71.84
2024-03-12T11:20:27.472Z,71.38
2024-03-12T11:22:57.604Z,71.37
2024-03-12T11:25:39.757Z,71.28
2024-03-12T11:28:26.452Z,71.32
2024-03-12T11:30:55.904Z,71.30
2024-03-12T11:33:46.385Z,69.95
2024-03-12T11:36:52.961Z,70.73
2024-03-12T11:39:31.954Z,70.54
2024-03-12T11:42:01.927Z,70.39
2024-03-12T11:44:45.803Z,70.56
2024-03-12T11:47:35.941Z,70.70
2024-03-12T11:50:05.005Z,70.80
2024-03-12T11:52:33.117Z,71.21
2024-03-12T11:55:01.251Z,71.08
2024-03-12T11:57:31.179Z,70.65
2024-03-12T11:59:58.605Z,70.14
2024-03-12T12:02:27.484Z,70.81
2024-03-12T12:04:57.439Z,70.80
2024-03-12T12:07:26.461Z,69.61
2024-03-12T12:09:53.576Z,69.31
2024-03-12T12:12:21.036Z,69.18
2024-03-12T12:14:51.333Z,68.34
2024-03-12T12:17:25.648Z,67.69
2024-03-12T12:20:06.107Z,66.82
2024-03-12T12:22:36.304Z,67.54
2024-03-12T12:25:03.821Z,66.65
2024-03-12T12:27:33.345Z,66.63
2024-03-12T12:30:01.567Z,67.76
2024-03-12T12:32:29.955Z,67.34
2024-03-12T12:34:57.994Z,67.34
2024-03-12T12:37:24.549Z,66.39
2024-03-12T12:39:54.058Z,65.73
2024-03-12T12:42:22.722Z,64.53
2024-03-12T12:44:55.353Z,61.94
2024-03-12T12:47:27.213Z,62.27
2024-03-12T12:49:54.063Z,61.77
2024-03-12T12:52:20.832Z,62.51
2024-03-12T12:54:49.959Z,62.23
2024-03-12T12:57:16.826Z,62.06
2024-03-12T12:59:43.447Z,62.07
2024-03-12T13:02:19.518Z,61.18
2024-03-12T13:04:46.293Z,60.96
2024-03-12T13:07:28.868Z,58.10
2024-03-12T13:09:55.996Z,57.76
2024-03-12T13:12:22.473Z,58.54
2024-03-12T13:14:49.020Z,58.41
2024-03-12T13:17:16.318Z,58.72
2024-03-12T13:19:43.502Z,58.51
2024-03-12T13:22:13.745Z,58.19
2024-03-12T13:24:44.884Z,59.05
2024-03-12T13:27:11.846Z,59.04
2024-03-12T13:29:38.263Z,59.26
2024-03-12T13:32:04.984Z,59.44
2024-03-12T13:34:31.519Z,59.61
2024-03-12T13:36:57.988Z,60.21
2024-03-12T13:39:25.858Z,60.11
2024-03-12T13:41:52.317Z,59.90
2024-03-12T13:44:18.733Z,60.17
2024-03-12T13:46:45.203Z,60.06
2024-03-12T13:49:18.261Z,60.61
2024-03-12T13:51:46.954Z,61.06
2024-03-12T13:54:13.725Z,61.70
2024-03-12T13:56:41.253Z,62.22
2024-03-12T13:59:08.056Z,61.97
2024-03-12T14:01:34.903Z,61.25
2024-03-12T14:04:02.120Z,61.37
2024-03-12T14:06:29.395Z,60.81
2024-03-12T14:08:56.063Z,61.11
2024-03-12T14:11:22.547Z,61.00
2024-03-12T14:13:50.903Z,61.32
2024-03-12T14:16:19.829Z,61.38
2024-03-12T14:18:50.423Z,61.67
2024-03-12T14:21:17.439Z,62.07
2024-03-12T14:23:43.961Z,61.79
2024-03-12T14:26:10.425Z,60.96
2024-03-12T14:28:36.852Z,59.71
2024-03-12T14:31:03.978Z,58.64
2024-03-12T14:33:30.590Z,58.31
2024-03-12T14:35:57.111Z,57.65
2024-03-12T14:38:23.998Z,57.24
2024-03-12T14:40:50.792Z,58.01
2024-03-12T14:43:17.455Z,58.40
2024-03-12T14:45:47.263Z,57.98
2024-03-12T14:48:14.130Z,57.38
2024-03-12T14:50:40.640Z,56.74
2024-03-12T14:53:08.978Z,56.89
2024-03-12T14:55:35.530Z,57.22
2024-03-12T14:58:02.195Z,57.70
2024-03-12T15:00:29.728Z,58.26
2024-03-12T15:02:59.212Z,58.56
2024-03-12T15:05:25.878Z,58.65
2024-03-12T15:07:52.282Z,59.01
2024-03-12T15:10:18.995Z,59.48
2024-03-12T15:12:45.758Z,59.76
2024-03-12T15:15:13.301Z,60.33
2024-03-12T15:17:41.536Z,60.21
2024-03-12T15:20:15.770Z,60.60
2024-03-12T15:22:43.494Z,61.20
2024-03-12T15:25:12.956Z,61.05
2024-03-12T15:27:41.571Z,61.91
2024-03-12T15:30:08.704Z,62.07
2024-03-12T15:32:38.944Z,62.35
2024-03-12T15:35:06.408Z,62.85
2024-03-12T15:37:33.330Z,63.38
2024-03-12T15:40:06.811Z,63.25
2024-03-12T15:42:35.114Z,63.32
2024-03-12T15:45:06.037Z,63.85
2024-03-12T15:47:35.659Z,64.50
2024-03-12T15:50:02.554Z,65.31
2024-03-12T15:52:29.119Z,64.27
2024-03-12T15:54:55.629Z,64.36
2024-03-12T15:57:23.661Z,64.40
2024-03-12T15:59:50.162Z,64.50
2024-03-12T16:02:16.683Z,64.99
2024-03-12T16:04:43.580Z,64.62
2024-03-12T16:07:10.070Z,65.32
2024-03-12T16:09:36.846Z,65.33
2024-03-12T16:12:03.541Z,65.62
2024-03-12T16:14:29.975Z,66.20
2024-03-12T16:16:56.386Z,66.15
2024-03-12T16:19:23.060Z,66.50
2024-03-12T16:21:55.296Z,66.49
2024-03-12T16:24:22.176Z,66.57
2024-03-12T16:26:48.653Z,66.21
2024-03-12T16:29:15.091Z,66.46
2024-03-12T16:31:44.551Z,66.24
2024-03-12T16:34:11.072Z,65.91
2024-03-12T16:36:37.679Z,65.74
2024-03-12T16:39:05.532Z,65.98
2024-03-12T16:41:32.210Z,65.84
2024-03-12T16:43:59.550Z,66.59
2024-03-12T16:46:26.050Z,67.24
2024-03-12T16:48:53.501Z,67.83
2024-03-12T16:51:19.965Z,68.23
2024-03-12T16:53:46.546Z,68.90
2024-03-12T16:56:25.370Z,69.18
2024-03-12T16:58:52.802Z,69.71
2024-03-12T17:01:21.101Z,70.54
2024-03-12T17:03:47.978Z,71.03
2024-03-12T17:06:17.118Z,71.89
2024-03-12T17:08:43.859Z,72.08
2024-03-12T17:11:10.554Z,74.23
2024-03-12T17:13:37.261Z,73.22
2024-03-12T17:16:08.160Z,73.52
2024-03-12T17:18:35.800Z,73.93
2024-03-12T17:21:03.910Z,74.27
2024-03-12T17:23:31.513Z,74.38
2024-03-12T17:25:58.439Z,74.66
2024-03-12T17:28:25.332Z,74.73
2024-03-12T17:30:52.165Z,75.39
2024-03-12T17:33:19.035Z,75.60
2024-03-12T17:35:48.558Z,75.85
2024-03-12T17:38:16.531Z,75.79
2024-03-12T17:40:43.596Z,76.52
2024-03-12T17:43:11.526Z,76.10
2024-03-12T17:45:40.348Z,76.71
2024-03-12T17:48:09.607Z,76.90
2024-03-12T17:50:36.333Z,77.02
2024-03-12T17:53:06.942Z,77.06
2024-03-12T17:55:33.600Z,77.23
2024-03-12T17:58:00.484Z,77.37
2024-03-12T18:00:27.147Z,77.73
2024-03-12T18:02:57.030Z,77.59
2024-03-12T18:05:23.879Z,77.56
2024-03-12T18:07:53.311Z,78.12
2024-03-12T18:10:21.859Z,78.32
2024-03-12T18:12:48.781Z,78.35
2024-03-12T18:15:19.948Z,78.47
2024-03-12T18:17:48.536Z,78.25
2024-03-12T18:20:25.344Z,78.45
2024-03-12T18:22:52.174Z,78.53
2024-03-12T18:25:18.774Z,78.56
2024-03-12T18:27:46.506Z,78.79
2024-03-12T18:30:13.417Z,80.06
2024-03-12T18:32:40.339Z,79.47
2024-03-12T18:35:08.980Z,79.11
2024-03-12T18:37:36.920Z,79.53
2024-03-12T18:40:03.979Z,79.62
2024-03-12T18:42:31.863Z,79.80
2024-03-12T18:44:58.351Z,79.74
2024-03-12T18:47:25.356Z,79.79
2024-03-12T18:49:52.782Z,79.74
2024-03-12T18:52:19.478Z,80.31
2024-03-12T18:54:46.266Z,80.67
2024-03-12T18:57:12.949Z,80.35
2024-03-12T18:59:39.599Z,80.92
2024-03-12T19:02:22.432Z,80.78
2024-03-12T19:04:51.131Z,80.90
2024-03-12T19:07:17.822Z,80.93
2024-03-12T19:09:44.533Z,81.35
2024-03-12T19:12:11.760Z,81.18
2024-03-12T19:14:39.224Z,81.51
2024-03-12T19:17:11.026Z,80.91
2024-03-12T19:19:39.178Z,81.46
2024-03-12T19:22:07.114Z,81.46
2024-03-12T19:24:33.574Z,81.61
2024-03-12T19:26:59.987Z,82.05
2024-03-12T19:29:27.641Z,82.60
2024-03-12T19:31:54.290Z,82.25
2024-03-12T19:34:21.062Z,82.97
2024-03-12T19:36:48.211Z,82.64
2024-03-12T19:39:15.000Z,83.24
2024-03-12T19:41:45.453Z,83.43
2024-03-12T19:44:12.778Z,84.04
2024-03-12T19:46:41.308Z,83.65
2024-03-12T19:49:10.146Z,83.60
2024-03-12T19:51:37.974Z,83.96
2024-03-12T19:54:07.766Z,84.09
2024-03-12T19:56:34.188Z,83.68
2024-03-12T19:59:00.808Z,83.66
2024-03-12T20:01:27.393Z,83.91
2024-03-12T20:03:53.894Z,84.40
2024-03-12T20:06:22.739Z,84.21
2024-03-12T20:08:51.777Z,84.40
2024-03-12T20:11:19.110Z,85.02
2024-03-12T20:13:45.566Z,84.81
2024-03-12T20:16:12.360Z,85.03
2024-03-12T20:18:42.309Z,84.82
2024-03-12T20:21:09.097Z,84.75
2024-03-12T20:23:37.639Z,84.93
2024-03-12T20:26:05.504Z,85.35
2024-03-12T20:28:32.009Z,85.35
2024-03-12T20:30:59.729Z,85.39
2024-03-12T20:33:28.263Z,86.05
2024-03-12T20:35:58.873Z,85.60
2024-03-12T20:38:25.338Z,85.73
2024-03-12T20:40:51.749Z,85.83
2024-03-12T20:43:18.205Z,85.92
2024-03-12T20:45:46.418Z,85.90
2024-03-12T20:48:14.671Z,86.42
2024-03-12T20:50:41.575Z,85.63
2024-03-12T20:53:08.520Z,86.36
2024-03-12T20:55:35.106Z,86.62
2024-03-12T20:58:01.690Z,86.64
2024-03-12T21:00:29.857Z,86.37
2024-03-12T21:02:56.437Z,87.03
2024-03-12T21:05:22.984Z,86.51
2024-03-12T21:07:51.554Z,87.50
2024-03-12T21:10:18.175Z,87.40
2024-03-12T21:12:46.269Z,87.46
2024-03-12T21:15:16.913Z,87.60
2024-03-12T21:17:43.869Z,87.72
2024-03-12T21:20:38.067Z,87.84
2024-03-12T21:23:05.096Z,87.47
2024-03-12T21:25:33.224Z,87.61
2024-03-12T21:27:59.718Z,87.63
2024-03-12T21:30:26.142Z,87.76
2024-03-12T21:32:53.810Z,88.28
2024-03-12T21:35:20.420Z,87.98
2024-03-12T21:37:47.531Z,88.28
2024-03-12T21:40:14.058Z,88.25
2024-03-12T21:42:43.428Z,88.25
2024-03-12T21:45:16.319Z,88.38
2024-03-12T21:47:43.772Z,88.48
2024-03-12T21:50:14.916Z,88.52
2024-03-12T21:52:41.789Z,88.83
2024-03-12T21:55:11.379Z,88.76
2024-03-12T21:57:44.254Z,88.77
2024-03-12T22:00:24.916Z,88.82
2024-03-12T22:02:51.427Z,89.00
2024-03-12T22:05:20.847Z,89.40
2024-03-12T22:07:49.896Z,89.33
2024-03-12T22:10:17.547Z,89.49
2024-03-12T22:12:44.167Z,89.19
2024-03-12T22:15:12.918Z,88.67
2024-03-12T22:17:39.815Z,88.96
2024-03-12T22:20:06.707Z,89.46
2024-03-12T22:22:33.809Z,89.59
2024-03-12T22:25:00.360Z,89.42
2024-03-12T22:27:29.054Z,89.25
2024-03-12T22:29:55.520Z,89.73
2024-03-12T22:32:26.753Z,89.46
2024-03-12T22:34:53.468Z,89.38
2024-03-12T22:37:20.056Z,89.88
2024-03-12T22:39:46.747Z,89.55
2024-03-12T22:42:13.534Z,89.71
2024-03-12T22:44:40.161Z,90.00
2024-03-12T22:47:09.064Z,89.65
2024-03-12T22:49:36.905Z,89.81
2024-03-12T22:52:06.146Z,89.56
2024-03-12T22:54:33.779Z,89.21
2024-03-12T22:57:00.598Z,89.48
2024-03-12T22:59:28.466Z,89.35
2024-03-12T23:01:57.325Z,89.46
2024-03-12T23:04:25.247Z,89.33
2024-03-12T23:06:52.542Z,88.96
2024-03-12T23:09:20.785Z,89.39
2024-03-12T23:11:47.477Z,89.29
2024-03-12T23:14:14.702Z,89.47
2024-03-12T23:16:41.174Z,89.28
2024-03-12T23:19:07.937Z,89.77
2024-03-12T23:21:36.636Z,89.83
2024-03-12T23:24:04.997Z,89.63
2024-03-12T23:26:31.503Z,90.04
2024-03-12T23:28:59.501Z,89.74
2024-03-12T23:31:26.596Z,90.42
2024-03-12T23:33:56.531Z,90.20
2024-03-12T23:36:28.342Z,90.01
2024-03-12T23:38:57.634Z,90.79
2024-03-12T23:41:24.748Z,91.14
2024-03-12T23:43:53.813Z,90.78
2024-03-12T23:46:20.640Z,90.98
2024-03-12T23:48:47.135Z,90.49
2024-03-12T23:51:14.070Z,90.83
2024-03-12T23:53:40.742Z,90.89
2024-03-12T23:56:07.307Z,90.70
2024-03-12T23:58:34.891Z,90.73
